Time;durP1;ratioP1;P1;durP2;ratioP2;P2;SDS_P1;SDS_P2;PMS_P1;PMS_P2;Temp;Humidity;BMP_temperature;BMP_pressure;BME280_temperature;BME280_humidity;BME280_pressure;Samples;Min_cycle;Max_cycle;Signal;HPM_P1;HPM_P2
2021/08/08 00:00:24;;;;;;;3.30;1.58;;;21.50;69.00;;;;;;10460562;28;20056;-49
2021/08/08 00:05:25;;;;;;;2.55;1.50;;;21.50;68.90;;;;;;10460084;28;20054;-47
2021/08/08 00:10:25;;;;;;;2.45;1.50;;;21.50;68.90;;;;;;10441909;28;20120;-47
2021/08/08 00:15:26;;;;;;;3.47;1.70;;;21.50;68.90;;;;;;10459647;28;20036;-47
2021/08/08 00:20:27;;;;;;;2.30;1.25;;;21.40;69.10;;;;;;10459856;28;20017;-48
2021/08/08 00:25:28;;;;;;;3.10;1.15;;;21.50;69.00;;;;;;10446129;28;20037;-48
2021/08/08 00:30:28;;;;;;;3.83;1.67;;;21.50;69.10;;;;;;10459624;28;20393;-48
2021/08/08 00:35:29;;;;;;;2.75;1.15;;;21.40;68.90;;;;;;10450094;28;20047;-49
2021/08/08 00:40:30;;;;;;;2.90;1.60;;;21.50;68.90;;;;;;10458894;28;20033;-49
2021/08/08 00:45:30;;;;;;;1.77;1.20;;;21.40;69.00;;;;;;10458985;28;20083;-49
2021/08/08 00:50:31;;;;;;;2.83;1.67;;;21.40;69.10;;;;;;10458815;28;20127;-48
2021/08/08 00:55:32;;;;;;;2.17;1.58;;;21.40;69.10;;;;;;10458446;28;20033;-47
2021/08/08 01:00:33;;;;;;;2.95;1.48;;;21.40;69.10;;;;;;10458705;28;20026;-48
2021/08/08 01:05:41;;;;;;;3.72;1.60;;;21.50;69.20;;;;;;10440507;28;20100;-48
2021/08/08 01:10:43;;;;;;;2.90;1.73;;;21.40;69.80;;;;;;10441087;28;20045;-47
2021/08/08 01:15:44;;;;;;;2.40;2.13;;;21.40;69.30;;;;;;10439929;28;20500;-49
2021/08/08 01:20:47;;;;;;;2.72;1.60;;;21.40;69.40;;;;;;10458198;28;20104;-47
2021/08/08 01:25:49;;;;;;;5.05;1.88;;;21.40;69.50;;;;;;10457592;28;20029;-48
2021/08/08 01:30:50;;;;;;;2.75;1.63;;;21.40;69.60;;;;;;10445228;28;20032;-47
2021/08/08 01:35:51;;;;;;;4.28;2.00;;;21.40;69.60;;;;;;10446303;28;20036;-47
2021/08/08 01:41:02;;;;;;;2.92;2.05;;;21.40;69.80;;;;;;10439523;28;20049;-48
2021/08/08 01:46:09;;;;;;;3.20;2.40;;;21.40;69.60;;;;;;10422832;28;20040;-49
2021/08/08 01:51:11;;;;;;;4.60;2.35;;;21.40;69.50;;;;;;10439371;28;20040;-48
2021/08/08 01:56:13;;;;;;;2.65;2.00;;;21.40;70.30;;;;;;10439524;28;20037;-47
2021/08/08 02:01:14;;;;;;;3.38;2.42;;;21.40;69.70;;;;;;10456519;28;20025;-49
2021/08/08 02:06:14;;;;;;;3.50;2.08;;;21.40;69.60;;;;;;10456188;28;20112;-50
2021/08/08 02:11:15;;;;;;;3.55;2.10;;;21.40;69.80;;;;;;10456136;28;20096;-48
2021/08/08 02:16:16;;;;;;;3.28;2.35;;;21.40;69.80;;;;;;10455666;28;20071;-49
2021/08/08 02:21:16;;;;;;;4.35;2.53;;;21.40;69.80;;;;;;10455824;28;20131;-47
2021/08/08 02:26:18;;;;;;;4.07;2.50;;;21.30;69.70;;;;;;10442329;28;20469;-48
2021/08/08 02:31:19;;;;;;;3.80;2.50;;;21.30;69.80;;;;;;10461083;28;20063;-49
2021/08/08 02:36:19;;;;;;;3.25;2.60;;;21.40;69.90;;;;;;10458394;28;20051;-49
2021/08/08 02:41:20;;;;;;;4.72;2.90;;;21.40;69.80;;;;;;10437486;28;20128;-47
2021/08/08 02:46:22;;;;;;;5.78;2.70;;;21.30;69.90;;;;;;10437109;28;20420;-48
2021/08/08 02:51:22;;;;;;;3.38;2.40;;;21.30;69.90;;;;;;10454898;28;20061;-49
2021/08/08 02:56:23;;;;;;;6.75;2.95;;;21.30;69.80;;;;;;10437081;28;20653;-48
2021/08/08 03:01:24;;;;;;;4.95;2.70;;;21.30;69.90;;;;;;10460773;28;20056;-48
2021/08/08 03:06:24;;;;;;;5.50;2.97;;;21.30;69.80;;;;;;10463122;28;20549;-49
2021/08/08 03:11:25;;;;;;;8.65;3.13;;;21.30;69.90;;;;;;10462952;28;20044;-48
2021/08/08 03:16:26;;;;;;;4.65;2.92;;;21.30;69.90;;;;;;10462329;28;20072;-49
2021/08/08 03:21:26;;;;;;;5.30;3.33;;;21.30;69.90;;;;;;10462578;28;20437;-49
2021/08/08 03:26:29;;;;;;;5.43;3.40;;;21.30;69.80;;;;;;10449098;28;20501;-49
2021/08/08 03:31:30;;;;;;;4.75;2.42;;;21.30;69.80;;;;;;10469239;28;20039;-47
2021/08/08 03:36:31;;;;;;;4.78;3.30;;;21.30;69.90;;;;;;10462859;28;20108;-49
2021/08/08 03:41:32;;;;;;;5.13;2.95;;;21.30;69.90;;;;;;10450615;28;20124;-47
2021/08/08 03:46:32;;;;;;;5.50;3.40;;;21.30;69.90;;;;;;10461509;28;20477;-49
2021/08/08 03:51:33;;;;;;;5.97;3.53;;;21.30;69.90;;;;;;10461523;28;20454;-47
2021/08/08 03:56:37;;;;;;;5.97;3.42;;;21.30;69.80;;;;;;10461040;28;20079;-47
2021/08/08 04:01:37;;;;;;;3.80;3.13;;;21.30;69.90;;;;;;10460296;28;20056;-47
2021/08/08 04:06:38;;;;;;;5.10;3.10;;;21.30;69.80;;;;;;10460160;28;20255;-48
2021/08/08 04:11:39;;;;;;;4.30;3.38;;;21.20;69.90;;;;;;10460082;28;20033;-47
2021/08/08 04:16:39;;;;;;;5.78;3.75;;;21.30;69.90;;;;;;10459453;28;20067;-47
2021/08/08 04:21:40;;;;;;;3.92;3.03;;;21.20;69.60;;;;;;10444593;28;20460;-48
2021/08/08 04:26:41;;;;;;;5.95;3.53;;;21.20;69.70;;;;;;10436923;28;20558;-48
2021/08/08 04:31:41;;;;;;;4.18;3.03;;;21.20;69.80;;;;;;10459489;28;20068;-47
2021/08/08 04:36:42;;;;;;;5.28;3.78;;;21.20;69.80;;;;;;10457297;28;20037;-48
2021/08/08 04:41:43;;;;;;;5.18;3.47;;;21.30;69.80;;;;;;10458930;28;20064;-47
2021/08/08 04:46:43;;;;;;;7.05;3.60;;;21.20;69.80;;;;;;10458477;28;20085;-51
2021/08/08 04:51:45;;;;;;;4.90;3.70;;;21.20;69.80;;;;;;10443228;28;20067;-48
2021/08/08 04:56:45;;;;;;;7.28;3.65;;;21.20;69.60;;;;;;10440371;28;20136;-47
2021/08/08 05:01:46;;;;;;;5.15;3.83;;;21.20;69.60;;;;;;10446640;28;20437;-49
2021/08/08 05:06:47;;;;;;;8.65;5.35;;;21.20;69.70;;;;;;10452000;28;20536;-51
2021/08/08 05:11:48;;;;;;;6.15;4.40;;;21.20;71.50;;;;;;10457877;28;20067;-50
2021/08/08 05:16:48;;;;;;;7.22;4.05;;;21.20;71.70;;;;;;10457373;28;20069;-49
2021/08/08 05:21:49;;;;;;;8.52;4.78;;;21.30;71.70;;;;;;10439144;28;20123;-54
2021/08/08 05:26:50;;;;;;;6.35;4.68;;;21.40;71.40;;;;;;10457703;28;20112;-48
2021/08/08 05:31:51;;;;;;;5.65;3.97;;;21.40;71.90;;;;;;10465972;28;20029;-52
2021/08/08 05:36:51;;;;;;;11.38;4.80;;;21.40;71.80;;;;;;10456760;28;20037;-53
2021/08/08 05:41:52;;;;;;;7.53;4.20;;;21.40;71.40;;;;;;10447755;28;20033;-48
2021/08/08 05:46:53;;;;;;;9.50;4.43;;;21.40;71.70;;;;;;10455332;28;20381;-47
2021/08/08 05:51:53;;;;;;;8.80;4.40;;;21.40;71.60;;;;;;10455886;28;20096;-48
2021/08/08 05:56:54;;;;;;;10.00;4.28;;;21.40;71.60;;;;;;10437582;28;20127;-49
2021/08/08 06:01:55;;;;;;;8.73;4.72;;;21.40;71.40;;;;;;10456031;28;20406;-47
2021/08/08 06:06:56;;;;;;;8.52;4.65;;;21.40;71.60;;;;;;10455702;28;20033;-45
2021/08/08 06:11:57;;;;;;;8.50;4.30;;;21.40;71.50;;;;;;10456177;28;20071;-48
2021/08/08 06:16:58;;;;;;;7.32;4.30;;;21.40;71.50;;;;;;10437185;28;20063;-48
2021/08/08 06:21:58;;;;;;;10.35;4.60;;;21.40;71.80;;;;;;10453249;28;20099;-50
2021/08/08 06:26:59;;;;;;;10.82;4.57;;;21.40;71.60;;;;;;10455356;28;20538;-48
2021/08/08 06:32:00;;;;;;;11.18;4.18;;;21.40;71.80;;;;;;10464645;28;20115;-47
2021/08/08 06:37:00;;;;;;;19.55;5.38;;;21.40;71.80;;;;;;10452684;28;20060;-47
2021/08/08 06:42:01;;;;;;;10.73;4.75;;;21.40;72.00;;;;;;10437312;28;20119;-48
2021/08/08 06:47:03;;;;;;;10.10;4.70;;;21.40;72.10;;;;;;10436092;28;20037;-47
2021/08/08 06:52:04;;;;;;;13.05;4.32;;;21.40;71.90;;;;;;10447477;28;20057;-48
2021/08/08 06:57:05;;;;;;;7.25;4.03;;;21.30;72.00;;;;;;10447367;28;20381;-51
2021/08/08 07:02:07;;;;;;;12.75;4.90;;;21.40;71.80;;;;;;10437152;28;20082;-52
2021/08/08 07:07:07;;;;;;;9.30;5.35;;;21.40;71.60;;;;;;10454616;28;20025;-51
2021/08/08 07:12:08;;;;;;;9.27;4.60;;;21.40;71.60;;;;;;10454041;28;20112;-50
2021/08/08 07:17:09;;;;;;;9.57;4.95;;;21.30;71.20;;;;;;10453759;28;20033;-49
2021/08/08 07:22:10;;;;;;;10.32;4.80;;;21.30;72.10;;;;;;10453408;28;20064;-48
2021/08/08 07:27:11;;;;;;;12.10;4.32;;;21.30;73.50;;;;;;10453287;28;20025;-48
2021/08/08 07:32:12;;;;;;;10.40;4.57;;;21.30;72.40;;;;;;10458999;28;20029;-48
2021/08/08 07:37:12;;;;;;;6.28;4.40;;;21.30;72.50;;;;;;10436188;28;20112;-47
2021/08/08 07:42:13;;;;;;;8.02;4.55;;;21.40;72.30;;;;;;10453459;28;20104;-47
2021/08/08 07:47:16;;;;;;;7.70;4.90;;;21.30;72.00;;;;;;10457390;28;20068;-49
2021/08/08 07:52:16;;;;;;;7.50;4.05;;;21.40;72.10;;;;;;10443177;28;20103;-49
2021/08/08 07:57:17;;;;;;;9.07;4.65;;;21.30;71.70;;;;;;10460353;28;20111;-53
2021/08/08 08:02:18;;;;;;;7.03;4.38;;;21.30;71.60;;;;;;10460639;28;20044;-48
2021/08/08 08:07:18;;;;;;;9.50;4.68;;;21.30;70.80;;;;;;10455048;28;20040;-50
2021/08/08 08:12:19;;;;;;;7.03;3.72;;;21.30;70.80;;;;;;10451276;28;20390;-50
2021/08/08 08:17:20;;;;;;;9.23;4.07;;;21.40;70.70;;;;;;10459495;28;20512;-48
2021/08/08 08:22:20;;;;;;;21.92;5.45;;;21.30;70.90;;;;;;10458599;28;20032;-52
2021/08/08 08:27:21;;;;;;;11.15;4.57;;;21.30;71.40;;;;;;10458378;28;20132;-52
2021/08/08 08:32:22;;;;;;;9.38;4.30;;;21.40;71.20;;;;;;10464438;28;20489;-55
2021/08/08 08:37:22;;;;;;;12.75;4.65;;;21.40;71.00;;;;;;10458824;28;20075;-53
2021/08/08 08:42:27;;;;;;;9.98;4.50;;;21.40;70.80;;;;;;10453554;28;20632;-52
2021/08/08 08:47:30;;;;;;;10.50;5.00;;;21.40;70.40;;;;;;10437999;28;20128;-54
2021/08/08 08:52:31;;;;;;;7.40;4.35;;;21.40;70.30;;;;;;10456380;28;20120;-53
2021/08/08 08:57:36;;;;;;;11.30;4.88;;;21.40;70.10;;;;;;10437556;28;20111;-54
2021/08/08 09:02:38;;;;;;;12.13;4.50;;;21.40;70.50;;;;;;10457291;28;20037;-54
2021/08/08 09:07:38;;;;;;;12.48;4.47;;;21.40;70.40;;;;;;10440078;28;20090;-55
2021/08/08 09:12:39;;;;;;;7.78;3.78;;;21.40;70.30;;;;;;10440315;28;20025;-54
2021/08/08 09:17:40;;;;;;;10.77;5.03;;;21.40;70.30;;;;;;10455469;28;20083;-53
2021/08/08 09:22:41;;;;;;;7.78;4.88;;;21.40;70.20;;;;;;10436672;28;20021;-51
2021/08/08 09:27:43;;;;;;;8.00;4.75;;;21.40;70.10;;;;;;10425625;28;20032;-51
2021/08/08 09:32:44;;;;;;;8.57;5.55;;;21.50;70.10;;;;;;10450195;28;20115;-49
2021/08/08 09:38:01;;;;;;;7.68;4.03;;;21.50;70.10;;;;;;10437481;28;20421;-50
2021/08/08 09:43:05;;;;;;;7.32;3.92;;;21.40;70.10;;;;;;10454678;28;20343;-48
2021/08/08 09:48:10;;;;;;;10.32;4.53;;;21.40;70.30;;;;;;10455299;28;20112;-57
2021/08/08 09:53:20;;;;;;;5.75;4.60;;;21.40;70.00;;;;;;10456084;28;20053;-48
2021/08/08 09:58:22;;;;;;;9.57;4.88;;;21.40;69.70;;;;;;10454619;28;20086;-49
2021/08/08 10:03:22;;;;;;;7.93;4.45;;;21.40;69.60;;;;;;10438191;28;20049;-47
2021/08/08 10:08:25;;;;;;;7.22;4.60;;;21.40;69.40;;;;;;10454861;28;20079;-48
2021/08/08 10:13:52;;;;;;;7.05;4.50;;;21.40;69.30;;;;;;10455362;28;20398;-54
2021/08/08 10:18:56;;;;;;;9.32;4.25;;;21.40;68.90;;;;;;10440054;28;20044;-53
2021/08/08 10:24:06;;;;;;;10.60;4.88;;;21.40;68.80;;;;;;10438968;28;20024;-53
2021/08/08 10:29:07;;;;;;;9.57;4.53;;;21.40;68.70;;;;;;10427698;28;20060;-51
2021/08/08 10:34:08;;;;;;;9.30;4.45;;;21.40;68.70;;;;;;10441258;28;20032;-53
2021/08/08 10:39:15;;;;;;;9.32;4.68;;;21.40;68.70;;;;;;10435754;28;20035;-53
2021/08/08 10:44:17;;;;;;;7.75;4.40;;;21.50;68.70;;;;;;10455056;28;20032;-52
2021/08/08 10:49:32;;;;;;;9.50;4.53;;;21.40;68.80;;;;;;10437026;28;20052;-53
2021/08/08 10:54:45;;;;;;;8.07;4.20;;;21.40;68.70;;;;;;10454097;28;20033;-50
2021/08/08 10:59:50;;;;;;;5.72;4.15;;;21.40;68.80;;;;;;10454651;28;20041;-51
2021/08/08 11:04:51;;;;;;;6.25;4.05;;;21.40;68.80;;;;;;10454667;28;20025;-52
2021/08/08 11:09:51;;;;;;;6.80;4.13;;;21.40;68.90;;;;;;10454316;28;20440;-54
2021/08/08 11:14:52;;;;;;;7.20;4.55;;;21.40;68.90;;;;;;10453778;28;20155;-51
2021/08/08 11:19:54;;;;;;;5.00;3.92;;;21.40;68.90;;;;;;10455771;28;20064;-54
2021/08/08 11:25:03;;;;;;;5.28;4.57;;;21.40;68.90;;;;;;10443317;28;20033;-52
2021/08/08 11:30:09;;;;;;;6.13;4.07;;;21.40;68.90;;;;;;10461817;28;20043;-53
2021/08/08 11:35:12;;;;;;;5.97;4.32;;;21.40;68.80;;;;;;10469449;28;20060;-53
2021/08/08 11:40:27;;;;;;;5.90;4.07;;;21.40;68.80;;;;;;10461406;28;20037;-51
2021/08/08 11:45:37;;;;;;;7.43;4.22;;;21.40;68.70;;;;;;10461359;28;20120;-53
2021/08/08 11:50:39;;;;;;;8.80;4.38;;;21.50;68.70;;;;;;10460890;28;20049;-52
2021/08/08 11:55:40;;;;;;;6.85;4.00;;;21.40;68.70;;;;;;10460839;28;20428;-54
2021/08/08 12:00:42;;;;;;;5.80;3.40;;;21.40;68.70;;;;;;10442811;28;20067;-53
2021/08/08 12:05:42;;;;;;;7.55;4.10;;;21.50;68.70;;;;;;10460389;28;20412;-50
2021/08/08 12:10:43;;;;;;;7.13;4.03;;;21.50;68.60;;;;;;10426359;28;20071;-51
2021/08/08 12:15:45;;;;;;;7.28;3.92;;;21.50;68.70;;;;;;10459441;28;20025;-52
2021/08/08 12:20:46;;;;;;;4.90;3.17;;;21.50;68.70;;;;;;10458972;28;20108;-52
2021/08/08 12:26:01;;;;;;;6.03;3.25;;;21.50;68.70;;;;;;10446176;28;20124;-54
2021/08/08 12:31:09;;;;;;;4.30;3.50;;;21.50;68.50;;;;;;10462814;28;20017;-53
2021/08/08 12:36:13;;;;;;;5.03;3.53;;;21.50;68.50;;;;;;10463691;28;20082;-53
2021/08/08 12:41:29;;;;;;;4.68;3.05;;;21.50;68.40;;;;;;10459188;28;20451;-52
2021/08/08 12:46:33;;;;;;;5.65;3.85;;;21.50;68.10;;;;;;10458903;28;20078;-52
2021/08/08 12:51:33;;;;;;;5.18;3.65;;;21.50;67.90;;;;;;10458733;28;20179;-52
2021/08/08 12:56:35;;;;;;;6.07;3.50;;;21.50;68.10;;;;;;10457986;28;20477;-52
2021/08/08 13:01:36;;;;;;;5.90;4.10;;;21.50;68.10;;;;;;10458309;28;20509;-51
2021/08/08 13:06:36;;;;;;;5.43;3.40;;;21.50;68.40;;;;;;10457991;28;20052;-51
2021/08/08 13:11:37;;;;;;;4.95;3.28;;;21.50;68.50;;;;;;10457930;28;20037;-51
2021/08/08 13:16:38;;;;;;;4.93;3.38;;;21.50;68.60;;;;;;10457513;28;20267;-52
2021/08/08 13:21:39;;;;;;;3.92;3.17;;;21.60;68.60;;;;;;10457845;28;20029;-51
2021/08/08 13:26:40;;;;;;;5.15;2.88;;;21.60;68.60;;;;;;10457501;28;20112;-53
2021/08/08 13:31:40;;;;;;;4.75;3.33;;;21.60;68.50;;;;;;10465814;28;20453;-49
2021/08/08 13:36:41;;;;;;;5.70;3.50;;;21.70;68.60;;;;;;10456837;28;20058;-53
2021/08/08 13:41:42;;;;;;;4.30;2.85;;;21.70;68.50;;;;;;10456214;28;20410;-52
2021/08/08 13:46:42;;;;;;;4.07;3.53;;;21.70;68.50;;;;;;10456264;28;20435;-53
2021/08/08 13:51:43;;;;;;;4.47;3.35;;;21.70;68.30;;;;;;10456350;28;20084;-50
2021/08/08 13:56:44;;;;;;;5.85;2.83;;;21.60;68.50;;;;;;10456102;28;20539;-53
2021/08/08 14:01:44;;;;;;;5.38;3.42;;;21.60;68.50;;;;;;10456372;28;20060;-52
2021/08/08 14:06:45;;;;;;;3.47;2.97;;;21.60;68.50;;;;;;10456290;28;20033;-52
2021/08/08 14:11:46;;;;;;;4.18;2.92;;;21.60;68.60;;;;;;10456294;28;20052;-52
2021/08/08 14:16:47;;;;;;;4.35;3.00;;;21.60;68.50;;;;;;10455672;28;20021;-52
2021/08/08 14:21:48;;;;;;;5.78;2.78;;;21.60;68.50;;;;;;10455750;28;20067;-49
2021/08/08 14:26:49;;;;;;;4.20;2.67;;;21.60;68.60;;;;;;10445760;28;20439;-51
2021/08/08 14:31:51;;;;;;;4.85;2.85;;;21.60;68.70;;;;;;10429762;28;20115;-54
2021/08/08 14:36:52;;;;;;;4.45;2.70;;;21.60;68.60;;;;;;10455097;28;20043;-53
2021/08/08 14:41:53;;;;;;;4.20;2.92;;;21.60;68.60;;;;;;10455317;28;20091;-54
2021/08/08 14:46:54;;;;;;;3.55;3.20;;;21.60;68.60;;;;;;10454845;28;20474;-54
2021/08/08 14:51:54;;;;;;;4.50;3.13;;;21.60;68.70;;;;;;10455192;28;20045;-53
2021/08/08 14:56:55;;;;;;;3.67;2.70;;;21.60;68.70;;;;;;10445331;28;20122;-54
2021/08/08 15:01:56;;;;;;;4.78;3.17;;;21.60;68.70;;;;;;10463508;28;20028;-53
2021/08/08 15:06:57;;;;;;;3.22;2.92;;;21.60;68.60;;;;;;10463067;28;20511;-54
2021/08/08 15:11:57;;;;;;;4.50;2.97;;;21.60;68.70;;;;;;10463061;28;20033;-54
2021/08/08 15:16:58;;;;;;;5.03;2.65;;;21.60;68.60;;;;;;10462493;28;20133;-52
2021/08/08 15:21:58;;;;;;;2.97;2.33;;;21.60;68.70;;;;;;10462490;28;20457;-53
2021/08/08 15:26:59;;;;;;;3.22;2.53;;;21.60;68.60;;;;;;10431050;28;20057;-51
2021/08/08 15:32:00;;;;;;;3.53;2.42;;;21.50;68.60;;;;;;10471042;28;20131;-53
2021/08/08 15:37:01;;;;;;;5.43;2.78;;;21.60;68.60;;;;;;10443735;28;20454;-54
2021/08/08 15:42:02;;;;;;;4.68;2.97;;;21.60;68.50;;;;;;10461920;28;20106;-53
2021/08/08 15:47:03;;;;;;;4.43;2.58;;;21.50;68.30;;;;;;10443866;28;20048;-54
2021/08/08 15:52:04;;;;;;;3.78;2.33;;;21.60;68.20;;;;;;10461416;28;20523;-54
2021/08/08 15:57:05;;;;;;;3.55;2.67;;;21.50;68.10;;;;;;10461515;28;20025;-53
2021/08/08 16:02:07;;;;;;;2.70;2.50;;;21.60;68.40;;;;;;10461131;28;20047;-54
2021/08/08 16:07:07;;;;;;;3.25;2.65;;;21.50;68.20;;;;;;10460307;28;20033;-52
2021/08/08 16:12:08;;;;;;;3.17;2.50;;;21.50;68.30;;;;;;10460799;28;20064;-53
2021/08/08 16:17:09;;;;;;;4.47;2.40;;;21.60;68.30;;;;;;10459954;28;20119;-53
2021/08/08 16:22:09;;;;;;;4.45;2.80;;;21.50;68.30;;;;;;10459469;28;20114;-53
2021/08/08 16:27:10;;;;;;;3.58;2.47;;;21.50;68.20;;;;;;10447165;28;20041;-54
2021/08/08 16:32:11;;;;;;;6.53;3.22;;;21.50;68.10;;;;;;10468390;28;20032;-54
2021/08/08 16:37:12;;;;;;;3.80;2.50;;;21.50;68.20;;;;;;10441460;28;20429;-53
2021/08/08 16:42:12;;;;;;;4.10;2.50;;;21.50;68.30;;;;;;10459310;28;20103;-53
2021/08/08 16:47:13;;;;;;;5.88;2.50;;;21.50;68.30;;;;;;10458715;28;20110;-54
2021/08/08 16:52:14;;;;;;;3.15;2.38;;;21.50;68.30;;;;;;10458921;28;20544;-51
2021/08/08 16:57:14;;;;;;;3.55;2.30;;;21.50;68.30;;;;;;10458679;28;20047;-52
2021/08/08 17:02:15;;;;;;;5.10;3.10;;;21.50;68.40;;;;;;10458744;28;20068;-53
2021/08/08 17:07:16;;;;;;;3.60;2.67;;;21.50;68.40;;;;;;10457776;28;20091;-53
2021/08/08 17:12:18;;;;;;;2.95;2.38;;;21.50;68.90;;;;;;10441736;28;20033;-53
2021/08/08 17:17:19;;;;;;;3.45;2.30;;;21.50;68.10;;;;;;10456753;28;20627;-54
2021/08/08 17:22:20;;;;;;;3.45;2.63;;;21.50;68.20;;;;;;10440058;28;20159;-51
2021/08/08 17:27:21;;;;;;;4.80;3.08;;;21.50;68.10;;;;;;10447252;28;20033;-52
2021/08/08 17:32:21;;;;;;;4.22;2.58;;;21.50;68.30;;;;;;10465647;28;20107;-53
2021/08/08 17:37:22;;;;;;;3.92;2.47;;;21.50;68.20;;;;;;10456999;28;20079;-53
2021/08/08 17:42:30;;;;;;;2.78;2.15;;;21.50;68.20;;;;;;10491624;28;20448;-52
2021/08/08 17:47:31;;;;;;;3.22;2.53;;;21.50;68.10;;;;;;10449650;28;20538;-53
2021/08/08 17:52:31;;;;;;;2.45;2.10;;;21.50;68.00;;;;;;10450382;28;20071;-54
2021/08/08 17:57:32;;;;;;;3.67;2.25;;;21.50;68.00;;;;;;10449034;28;20039;-52
2021/08/08 18:02:33;;;;;;;3.38;2.47;;;21.50;67.90;;;;;;10449682;28;20627;-54
2021/08/08 18:07:33;;;;;;;3.58;2.20;;;21.50;68.00;;;;;;10448892;28;20067;-53
2021/08/08 18:12:34;;;;;;;3.50;2.35;;;21.50;67.90;;;;;;10448957;28;20022;-54
2021/08/08 18:17:35;;;;;;;2.33;1.85;;;21.50;68.00;;;;;;10447258;28;20040;-52
2021/08/08 18:22:36;;;;;;;3.25;2.53;;;21.50;68.70;;;;;;10448186;28;20085;-52
2021/08/08 18:27:37;;;;;;;4.78;2.33;;;21.50;68.10;;;;;;10430144;28;20056;-52
2021/08/08 18:32:37;;;;;;;3.42;2.10;;;21.50;68.00;;;;;;10457272;28;20106;-46
2021/08/08 18:37:38;;;;;;;4.72;2.35;;;21.50;68.10;;;;;;10433908;28;20032;-54
2021/08/08 18:42:39;;;;;;;5.75;2.13;;;21.50;68.10;;;;;;10447022;28;20159;-51
2021/08/08 18:47:40;;;;;;;7.60;2.67;;;21.50;68.20;;;;;;10445892;28;20021;-54
2021/08/08 18:52:40;;;;;;;5.35;2.50;;;21.50;68.20;;;;;;10425071;28;20025;-53
2021/08/08 18:57:42;;;;;;;4.55;2.13;;;21.50;68.30;;;;;;10418173;28;20049;-51
2021/08/08 19:02:42;;;;;;;3.83;2.28;;;21.50;68.50;;;;;;10418673;28;20025;-54
2021/08/08 19:07:43;;;;;;;2.53;1.65;;;21.60;68.30;;;;;;10418788;28;20105;-53
2021/08/08 19:12:45;;;;;;;4.10;2.25;;;21.60;68.50;;;;;;10418994;28;20120;-55
2021/08/08 19:17:49;;;;;;;4.85;2.45;;;21.60;68.20;;;;;;10413212;28;20095;-53
2021/08/08 19:22:51;;;;;;;3.95;2.30;;;21.60;68.10;;;;;;10416198;28;20386;-54
2021/08/08 19:27:53;;;;;;;4.80;2.17;;;21.50;68.30;;;;;;10414722;28;20501;-55
2021/08/08 19:32:53;;;;;;;4.13;2.15;;;21.50;68.40;;;;;;10416204;28;20409;-54
2021/08/08 19:37:54;;;;;;;3.97;2.10;;;21.50;68.40;;;;;;10416086;28;20116;-54
2021/08/08 19:42:55;;;;;;;2.70;1.80;;;21.50;68.40;;;;;;10416540;28;20041;-54
2021/08/08 19:47:56;;;;;;;3.40;2.33;;;21.50;68.30;;;;;;10416058;28;20064;-54
2021/08/08 19:52:57;;;;;;;3.72;2.00;;;21.50;68.30;;;;;;10416237;28;20088;-54
2021/08/08 19:57:57;;;;;;;4.15;2.00;;;21.40;68.30;;;;;;10417458;28;20119;-54
2021/08/08 20:02:58;;;;;;;3.70;2.60;;;21.40;68.20;;;;;;10416602;28;20038;-54
2021/08/08 20:07:59;;;;;;;3.17;1.90;;;21.50;68.20;;;;;;10416489;28;20065;-55
2021/08/08 20:13:04;;;;;;;3.50;2.42;;;21.40;68.20;;;;;;10417013;28;20029;-55
2021/08/08 20:18:07;;;;;;;3.15;1.77;;;21.50;68.20;;;;;;10416860;28;20112;-54
2021/08/08 20:23:08;;;;;;;3.63;1.77;;;21.40;68.10;;;;;;10415636;28;20068;-61
2021/08/08 20:28:09;;;;;;;3.40;2.05;;;21.50;68.10;;;;;;10402654;28;20135;-61
2021/08/08 20:33:11;;;;;;;2.97;1.85;;;21.40;68.10;;;;;;10424378;28;20037;-62
2021/08/08 20:38:11;;;;;;;2.88;1.98;;;21.40;68.00;;;;;;10415992;28;20124;-61
2021/08/08 20:43:12;;;;;;;3.25;2.10;;;21.40;67.90;;;;;;10415943;28;20120;-61
2021/08/08 20:48:16;;;;;;;3.90;1.92;;;21.40;67.90;;;;;;10415575;28;20033;-61
2021/08/08 20:53:17;;;;;;;5.15;2.00;;;21.40;68.00;;;;;;10414328;28;20421;-60
2021/08/08 20:58:18;;;;;;;2.92;2.08;;;21.40;67.90;;;;;;10414949;28;20038;-61
2021/08/08 21:03:18;;;;;;;4.35;2.30;;;21.40;67.90;;;;;;10415346;28;20049;-62
2021/08/08 21:08:19;;;;;;;5.22;2.20;;;21.40;67.90;;;;;;10415005;28;20061;-62
2021/08/08 21:13:20;;;;;;;4.60;2.50;;;21.40;67.80;;;;;;10413078;28;20056;-61
2021/08/08 21:18:21;;;;;;;3.92;2.35;;;21.40;67.80;;;;;;10414541;28;20065;-62
2021/08/08 21:23:22;;;;;;;3.45;1.77;;;21.40;67.60;;;;;;10414654;28;20057;-62
2021/08/08 21:28:23;;;;;;;4.03;2.60;;;21.40;67.70;;;;;;10405964;28;20033;-61
2021/08/08 21:33:24;;;;;;;4.43;2.13;;;21.40;67.70;;;;;;10422376;28;20795;-62
2021/08/08 21:38:24;;;;;;;3.40;2.00;;;21.40;67.60;;;;;;10413959;28;20140;-62
2021/08/08 21:43:25;;;;;;;3.80;2.22;;;21.40;67.60;;;;;;10414467;28;20034;-62
2021/08/08 21:48:26;;;;;;;3.13;2.30;;;21.30;67.50;;;;;;10414091;28;20119;-62
2021/08/08 21:53:26;;;;;;;4.20;2.00;;;21.30;67.50;;;;;;10413962;28;20055;-61
2021/08/08 21:58:27;;;;;;;3.97;2.65;;;21.40;67.60;;;;;;10414023;28;20037;-61
2021/08/08 22:03:27;;;;;;;3.80;2.30;;;21.30;67.40;;;;;;10413734;28;20057;-61
2021/08/08 22:08:28;;;;;;;3.65;2.47;;;21.30;67.50;;;;;;10413541;28;20044;-60
2021/08/08 22:13:29;;;;;;;3.13;2.28;;;21.30;67.30;;;;;;10413427;28;20508;-61
2021/08/08 22:18:30;;;;;;;3.67;2.17;;;21.30;67.50;;;;;;10413072;28;20038;-62
2021/08/08 22:23:30;;;;;;;4.10;2.20;;;21.30;67.40;;;;;;10413473;28;20022;-61
2021/08/08 22:28:31;;;;;;;4.07;2.30;;;21.30;67.20;;;;;;10414673;28;20030;-61
2021/08/08 22:33:32;;;;;;;2.65;2.08;;;21.30;67.20;;;;;;10429960;28;20065;-62
2021/08/08 22:38:32;;;;;;;2.88;2.20;;;21.30;67.40;;;;;;10420639;28;20038;-62
2021/08/08 22:43:33;;;;;;;4.22;2.33;;;21.30;67.40;;;;;;10420587;28;20026;-61
2021/08/08 22:48:34;;;;;;;2.85;2.17;;;21.30;67.40;;;;;;10420660;28;20064;-62
2021/08/08 22:53:35;;;;;;;3.92;1.90;;;21.30;67.30;;;;;;10420121;28;20125;-62
2021/08/08 22:58:36;;;;;;;3.33;2.05;;;21.30;67.40;;;;;;10420060;28;20048;-62
2021/08/08 23:03:36;;;;;;;3.50;2.15;;;21.30;67.50;;;;;;10420138;28;20029;-62
2021/08/08 23:08:37;;;;;;;3.15;1.90;;;21.20;67.70;;;;;;10419607;28;20088;-62
2021/08/08 23:13:38;;;;;;;4.30;2.70;;;21.30;67.70;;;;;;10419446;28;20117;-62
2021/08/08 23:18:38;;;;;;;3.85;1.80;;;21.20;67.60;;;;;;10411557;28;20037;-61
2021/08/08 23:23:39;;;;;;;4.38;2.33;;;21.20;67.60;;;;;;10418696;28;20425;-62
2021/08/08 23:28:40;;;;;;;2.85;1.58;;;21.30;67.50;;;;;;10413468;28;20029;-61
2021/08/08 23:33:41;;;;;;;5.47;3.00;;;21.30;67.50;;;;;;10427242;28;20071;-62
2021/08/08 23:38:41;;;;;;;4.63;2.30;;;21.30;67.30;;;;;;10418002;28;20073;-62
2021/08/08 23:43:42;;;;;;;4.05;2.33;;;21.20;67.30;;;;;;10418494;28;20048;-62
2021/08/08 23:48:43;;;;;;;3.42;2.25;;;21.20;67.50;;;;;;10417836;28;20087;-62
2021/08/08 23:53:43;;;;;;;3.47;2.17;;;21.20;67.60;;;;;;10430652;28;20164;-62
2021/08/08 23:58:44;;;;;;;3.00;1.73;;;21.20;67.60;;;;;;10417526;28;20076;-62
